Time;durP1;ratioP1;P1;durP2;ratioP2;P2;SDS_P1;SDS_P2;PMS_P1;PMS_P2;Temp;Humidity;BMP_temperature;BMP_pressure;BME280_temperature;BME280_humidity;BME280_pressure;Samples;Min_cycle;Max_cycle;Signal;HPM_P1;HPM_P2
2024/03/13 00:00:34;;;;;;;4.65;1.20;;;14.00;70.30;;;;;;4978337;28;20181;-81
2024/03/13 00:03:21;;;;;;;4.32;1.17;;;14.00;70.30;;;;;;4979550;28;20081;-82
2024/03/13 00:06:05;;;;;;;4.18;1.58;;;14.00;70.30;;;;;;4971236;28;20101;-82
2024/03/13 00:08:51;;;;;;;4.93;1.05;;;14.00;70.30;;;;;;4978818;28;20050;-81
2024/03/13 00:11:35;;;;;;;2.67;1.23;;;13.90;70.20;;;;;;4978179;28;20169;-80
2024/03/13 00:14:19;;;;;;;2.67;1.10;;;14.00;70.30;;;;;;4975448;28;20078;-81
2024/03/13 00:17:04;;;;;;;2.35;0.85;;;14.00;70.40;;;;;;4978744;28;20520;-80
2024/03/13 00:19:56;;;;;;;2.63;1.10;;;13.90;70.20;;;;;;4975391;28;20073;-80
2024/03/13 00:22:41;;;;;;;2.42;1.10;;;14.00;70.40;;;;;;4975187;28;20038;-80
2024/03/13 00:25:25;;;;;;;3.53;1.60;;;14.00;70.40;;;;;;4969146;28;20045;-80
2024/03/13 00:28:10;;;;;;;2.47;0.95;;;13.90;70.20;;;;;;4969025;28;20041;-80
2024/03/13 00:30:58;;;;;;;3.83;1.20;;;14.00;70.40;;;;;;4974819;28;20058;-80
2024/03/13 00:33:43;;;;;;;2.75;0.75;;;14.00;70.50;;;;;;4968750;28;20427;-82
2024/03/13 00:36:28;;;;;;;3.63;1.45;;;14.00;70.40;;;;;;4970274;28;20077;-80
2024/03/13 00:39:12;;;;;;;4.72;1.05;;;14.00;70.40;;;;;;4978214;28;20080;-82
2024/03/13 00:41:57;;;;;;;4.18;1.50;;;13.90;70.20;;;;;;4973401;28;20126;-82
2024/03/13 00:44:42;;;;;;;4.53;1.23;;;13.90;70.20;;;;;;4970961;28;20169;-81
2024/03/13 00:47:27;;;;;;;2.95;2.17;;;13.90;70.30;;;;;;4972937;28;20145;-81
2024/03/13 00:50:15;;;;;;;2.80;1.15;;;13.90;70.30;;;;;;4973012;28;20093;-81
2024/03/13 00:52:59;;;;;;;3.20;1.02;;;13.90;70.30;;;;;;4971452;28;20402;-81
2024/03/13 00:55:44;;;;;;;5.88;1.52;;;13.90;70.30;;;;;;4971842;28;20097;-80
2024/03/13 00:58:28;;;;;;;2.55;1.40;;;13.90;70.30;;;;;;4972064;28;20037;-80
2024/03/13 01:01:13;;;;;;;6.95;1.40;;;13.90;70.30;;;;;;4976043;28;20509;-80
2024/03/13 01:03:59;;;;;;;3.38;1.38;;;13.80;70.20;;;;;;4979817;28;20049;-80
2024/03/13 01:06:45;;;;;;;2.40;1.08;;;13.90;70.30;;;;;;4974518;28;20381;-80
2024/03/13 01:09:30;;;;;;;3.20;1.10;;;13.90;70.30;;;;;;4977787;28;20376;-80
2024/03/13 01:12:15;;;;;;;3.35;1.00;;;13.90;70.30;;;;;;4969628;28;20042;-80
2024/03/13 01:14:59;;;;;;;3.22;1.00;;;13.90;70.80;;;;;;4977336;28;20204;-79
2024/03/13 01:17:43;;;;;;;5.60;2.13;;;13.80;70.20;;;;;;4969260;28;20120;-80
2024/03/13 01:20:30;;;;;;;2.90;1.15;;;13.80;70.10;;;;;;4975171;28;20444;-80
2024/03/13 01:23:15;;;;;;;4.10;1.23;;;13.80;70.10;;;;;;4980139;28;20049;-79
2024/03/13 01:26:04;;;;;;;3.83;1.42;;;13.80;70.20;;;;;;4974969;28;20299;-79
2024/03/13 01:28:49;;;;;;;4.05;0.80;;;13.90;70.30;;;;;;4971506;28;20046;-79
2024/03/13 01:31:35;;;;;;;4.70;1.10;;;13.80;70.10;;;;;;4979251;28;20041;-79
2024/03/13 01:34:20;;;;;;;4.05;1.70;;;13.80;70.10;;;;;;4972633;28;20049;-79
2024/03/13 01:40:14;;;;;;;5.53;1.33;;;13.80;70.10;;;;;;4974512;28;20410;-79
2024/03/13 01:55:28;;;;;;;2.90;1.27;;;13.70;69.90;;;;;;4972668;28;20181;-80
2024/03/13 01:58:19;;;;;;;2.80;1.20;;;13.70;69.90;;;;;;4977820;28;20537;-81
2024/03/13 02:04:08;;;;;;;5.70;1.42;;;13.70;70.00;;;;;;4974548;28;20398;-80
2024/03/13 02:06:53;;;;;;;3.47;1.27;;;13.70;70.00;;;;;;4978610;28;20081;-81
2024/03/13 02:09:38;;;;;;;2.70;0.93;;;13.70;70.00;;;;;;4977221;28;20127;-82
2024/03/13 02:12:22;;;;;;;5.57;1.20;;;13.70;70.00;;;;;;4972783;28;20506;-81
2024/03/13 02:15:07;;;;;;;3.92;1.10;;;13.70;70.00;;;;;;4979178;28;20399;-81
2024/03/13 02:17:54;;;;;;;2.75;0.93;;;13.70;70.00;;;;;;4981089;28;20170;-81
2024/03/13 02:20:40;;;;;;;1.80;0.88;;;13.70;70.00;;;;;;4974244;28;20069;-82
2024/03/13 02:23:31;;;;;;;4.80;1.38;;;13.70;70.00;;;;;;4969038;28;20057;-81
2024/03/13 02:26:16;;;;;;;5.35;1.60;;;13.60;69.90;;;;;;4965736;28;20231;-81
2024/03/13 02:29:00;;;;;;;2.05;0.90;;;13.70;70.00;;;;;;4971983;28;20133;-82
2024/03/13 02:31:46;;;;;;;1.92;0.85;;;13.60;69.90;;;;;;4973396;28;20038;-82
2024/03/13 02:34:30;;;;;;;3.15;1.00;;;13.70;70.10;;;;;;4979032;28;20061;-82
2024/03/13 02:37:15;;;;;;;2.50;0.95;;;13.60;69.90;;;;;;4975809;28;20049;-82
2024/03/13 02:39:59;;;;;;;5.43;1.13;;;13.70;70.00;;;;;;4976729;28;20085;-81
2024/03/13 02:42:44;;;;;;;3.00;1.02;;;13.70;70.00;;;;;;4961815;28;20081;-80
2024/03/13 02:45:28;;;;;;;2.72;1.10;;;13.60;69.90;;;;;;4975467;28;20105;-80
2024/03/13 02:48:15;;;;;;;2.70;0.82;;;13.70;70.10;;;;;;4986181;28;20045;-81
2024/03/13 02:51:00;;;;;;;2.75;1.30;;;13.70;70.10;;;;;;4984116;28;20041;-81
2024/03/13 02:53:44;;;;;;;1.58;0.80;;;13.60;69.90;;;;;;4986210;28;20069;-80
2024/03/13 02:56:30;;;;;;;3.55;0.80;;;13.60;69.90;;;;;;4976956;28;20096;-79
2024/03/13 02:59:17;;;;;;;3.30;1.70;;;13.60;69.90;;;;;;4983725;28;20049;-79
2024/03/13 03:02:02;;;;;;;2.28;1.02;;;13.60;69.90;;;;;;4975612;28;20401;-79
2024/03/13 03:04:47;;;;;;;2.70;1.05;;;13.60;70.00;;;;;;4982429;28;20042;-80
2024/03/13 03:07:32;;;;;;;2.20;0.90;;;13.60;70.00;;;;;;4987211;28;20076;-80
2024/03/13 03:10:17;;;;;;;3.88;0.90;;;13.60;70.00;;;;;;4979766;28;20045;-80
2024/03/13 03:13:02;;;;;;;2.58;1.52;;;13.60;70.00;;;;;;4967003;28;20679;-80
2024/03/13 03:15:48;;;;;;;2.15;0.90;;;13.60;70.00;;;;;;4986388;28;20053;-80
2024/03/13 03:18:32;;;;;;;3.92;1.15;;;13.60;70.00;;;;;;4984538;28;20523;-80
2024/03/13 03:21:17;;;;;;;2.10;0.63;;;13.60;70.00;;;;;;4980755;28;20097;-79
2024/03/13 03:24:02;;;;;;;1.30;0.65;;;13.60;70.00;;;;;;4987316;28;20069;-80
2024/03/13 03:26:46;;;;;;;3.03;1.10;;;13.60;70.00;;;;;;4986332;28;20060;-81
2024/03/13 03:29:30;;;;;;;2.85;0.80;;;13.60;70.00;;;;;;4985213;28;20080;-80
2024/03/13 03:32:15;;;;;;;2.25;1.05;;;13.60;70.00;;;;;;4978571;28;20056;-80
2024/03/13 03:35:00;;;;;;;2.03;0.85;;;13.60;70.00;;;;;;4987753;28;20205;-80
2024/03/13 03:37:44;;;;;;;2.25;0.80;;;13.60;70.00;;;;;;4987578;28;20109;-80
2024/03/13 03:40:30;;;;;;;3.03;0.93;;;13.60;69.90;;;;;;4991608;28;20473;-81
2024/03/13 03:43:14;;;;;;;2.67;1.13;;;13.60;69.90;;;;;;4985130;28;20623;-80
2024/03/13 03:45:59;;;;;;;3.13;0.75;;;13.60;70.00;;;;;;4980768;28;20045;-81
2024/03/13 03:48:43;;;;;;;3.22;0.80;;;13.60;70.00;;;;;;4988217;28;20045;-81
2024/03/13 03:51:28;;;;;;;2.13;1.02;;;13.60;70.00;;;;;;4985327;28;20069;-80
2024/03/13 03:54:13;;;;;;;0.93;0.50;;;13.60;70.00;;;;;;4987155;28;20069;-80
2024/03/13 03:56:57;;;;;;;2.92;0.73;;;13.50;69.80;;;;;;4982999;28;20033;-80
2024/03/13 03:59:42;;;;;;;3.33;0.88;;;13.60;70.00;;;;;;4984653;28;20126;-81
2024/03/13 04:02:27;;;;;;;3.00;0.80;;;13.60;70.00;;;;;;4977111;28;20167;-80
2024/03/13 04:05:13;;;;;;;0.93;0.60;;;13.60;70.00;;;;;;4979851;28;20106;-79
2024/03/13 04:07:58;;;;;;;1.45;0.63;;;13.60;70.00;;;;;;4996026;28;20086;-80
2024/03/13 04:10:43;;;;;;;1.80;0.90;;;13.60;70.00;;;;;;4981046;28;20048;-80
2024/03/13 04:13:27;;;;;;;3.95;0.82;;;13.60;70.00;;;;;;4986402;28;20053;-80
2024/03/13 04:16:16;;;;;;;3.17;0.70;;;13.60;70.00;;;;;;4964467;28;20033;-81
2024/03/13 04:19:00;;;;;;;3.20;0.60;;;13.60;70.00;;;;;;4976933;28;20437;-80
2024/03/13 04:21:45;;;;;;;3.10;0.70;;;13.60;70.00;;;;;;4983391;28;20116;-80
2024/03/13 04:24:30;;;;;;;2.40;0.88;;;13.50;69.80;;;;;;4983380;28;20580;-80
2024/03/13 04:27:14;;;;;;;2.83;1.40;;;13.60;70.00;;;;;;4983249;28;20158;-81
2024/03/13 04:29:59;;;;;;;2.83;0.63;;;13.50;69.80;;;;;;4969741;28;20113;-80
2024/03/13 04:32:43;;;;;;;0.68;0.68;;;13.50;69.80;;;;;;4981578;28;20157;-80
2024/03/13 04:35:28;;;;;;;2.67;0.60;;;13.60;70.00;;;;;;4978955;28;20049;-80
2024/03/13 04:38:13;;;;;;;1.20;0.60;;;13.50;69.80;;;;;;4996030;28;20073;-83
2024/03/13 04:40:57;;;;;;;2.92;0.50;;;13.50;69.90;;;;;;4983415;28;20045;-82
2024/03/13 04:43:42;;;;;;;3.20;0.60;;;13.50;69.90;;;;;;4977416;28;20053;-82
2024/03/13 04:46:27;;;;;;;2.75;0.60;;;13.50;69.90;;;;;;4969832;28;20077;-82
2024/03/13 04:49:12;;;;;;;0.98;0.50;;;13.50;69.90;;;;;;4982675;28;20126;-81
2024/03/13 04:51:57;;;;;;;1.20;1.08;;;13.50;69.90;;;;;;4983930;28;20041;-82
2024/03/13 04:54:41;;;;;;;1.67;0.73;;;13.50;69.90;;;;;;4974197;28;20093;-83
2024/03/13 04:57:26;;;;;;;1.75;0.90;;;13.50;69.90;;;;;;4986515;28;20053;-82
2024/03/13 05:00:11;;;;;;;1.15;0.60;;;13.50;69.90;;;;;;4980690;28;20048;-82
2024/03/13 05:02:55;;;;;;;1.33;0.40;;;13.50;69.90;;;;;;4980566;28;20868;-82
2024/03/13 05:05:45;;;;;;;3.22;0.60;;;13.50;69.90;;;;;;4983945;28;20054;-82
2024/03/13 05:08:29;;;;;;;1.77;0.57;;;13.50;69.90;;;;;;4979311;28;20513;-81
2024/03/13 05:11:14;;;;;;;1.90;0.50;;;13.50;69.90;;;;;;4969433;28;20453;-81
2024/03/13 05:13:59;;;;;;;1.75;0.82;;;13.50;69.90;;;;;;4985416;28;20033;-82
2024/03/13 05:16:45;;;;;;;2.42;0.88;;;13.50;69.90;;;;;;4986492;28;20100;-80
2024/03/13 05:19:30;;;;;;;3.90;1.63;;;13.50;69.90;;;;;;4983547;28;20068;-80
2024/03/13 05:22:15;;;;;;;1.23;0.50;;;13.40;69.80;;;;;;4980249;28;20108;-80
2024/03/13 05:24:59;;;;;;;2.08;0.50;;;13.50;69.90;;;;;;4983059;28;20402;-80
2024/03/13 05:27:46;;;;;;;1.88;0.60;;;13.50;69.90;;;;;;4973824;28;20089;-81
2024/03/13 05:30:30;;;;;;;4.90;1.35;;;13.50;69.90;;;;;;4985034;28;20057;-79
2024/03/13 05:33:15;;;;;;;4.05;0.80;;;13.50;69.90;;;;;;4984300;28;20133;-79
2024/03/13 05:36:01;;;;;;;1.25;0.38;;;13.40;69.70;;;;;;4986872;28;20077;-79
2024/03/13 05:38:46;;;;;;;2.17;0.60;;;13.50;69.90;;;;;;4975557;28;20100;-80
2024/03/13 05:41:31;;;;;;;2.15;0.70;;;13.50;69.90;;;;;;4973512;28;20045;-80
2024/03/13 05:44:15;;;;;;;0.95;0.50;;;13.40;69.80;;;;;;4987195;28;20582;-80
2024/03/13 05:47:00;;;;;;;1.80;0.35;;;13.40;69.80;;;;;;4980752;28;20134;-81
2024/03/13 05:49:44;;;;;;;2.70;0.73;;;13.40;69.80;;;;;;4977619;28;20138;-80
2024/03/13 05:52:28;;;;;;;2.67;0.80;;;13.40;69.80;;;;;;4973290;28;20058;-80
2024/03/13 05:55:16;;;;;;;2.13;0.57;;;13.40;70.40;;;;;;4973764;28;20046;-80
2024/03/13 05:58:01;;;;;;;1.50;0.50;;;13.40;69.90;;;;;;4983011;28;20040;-80
2024/03/13 06:00:46;;;;;;;2.63;0.50;;;13.40;69.90;;;;;;4958117;28;20119;-81
2024/03/13 06:03:31;;;;;;;7.93;0.98;;;13.40;69.90;;;;;;4965628;28;20120;-79
2024/03/13 06:06:16;;;;;;;1.42;0.60;;;13.40;69.90;;;;;;4980258;28;20037;-79
2024/03/13 06:09:00;;;;;;;1.27;0.40;;;13.40;69.90;;;;;;4961173;28;20512;-79
2024/03/13 06:11:45;;;;;;;2.40;0.50;;;13.40;69.90;;;;;;4968698;28;20069;-81
2024/03/13 06:14:29;;;;;;;2.08;0.60;;;13.40;69.90;;;;;;4969447;28;20517;-79
2024/03/13 06:17:14;;;;;;;1.95;0.50;;;13.50;70.10;;;;;;4982158;28;20504;-79
2024/03/13 06:19:59;;;;;;;1.48;0.70;;;13.40;69.90;;;;;;4978627;28;20153;-79
2024/03/13 06:22:43;;;;;;;2.25;0.40;;;13.40;69.90;;;;;;4977637;28;20151;-79
2024/03/13 06:25:28;;;;;;;2.20;0.40;;;13.40;69.90;;;;;;4982260;28;20085;-79
2024/03/13 06:31:16;;;;;;;1.35;0.80;;;13.40;69.90;;;;;;4979393;28;20046;-80
2024/03/13 06:34:00;;;;;;;3.15;0.73;;;13.40;69.90;;;;;;4956585;28;20331;-82
2024/03/13 06:36:45;;;;;;;3.85;0.63;;;13.40;69.90;;;;;;4982522;28;20544;-80
2024/03/13 06:39:30;;;;;;;3.60;0.70;;;13.40;69.90;;;;;;4975469;28;20145;-81
2024/03/13 06:42:15;;;;;;;2.70;0.70;;;13.40;70.00;;;;;;4974606;28;20045;-80
2024/03/13 06:45:00;;;;;;;2.60;0.90;;;13.40;69.90;;;;;;4971878;28;20152;-83
2024/03/13 06:47:44;;;;;;;1.02;0.40;;;13.40;70.00;;;;;;4971391;28;20508;-80
2024/03/13 06:50:29;;;;;;;2.53;0.60;;;13.40;70.00;;;;;;4975740;28;20048;-81
2024/03/13 06:53:14;;;;;;;2.38;0.77;;;13.40;70.00;;;;;;4989041;28;20575;-78
2024/03/13 06:55:59;;;;;;;1.42;0.32;;;13.40;70.00;;;;;;4962532;28;20216;-80
2024/03/13 06:58:43;;;;;;;1.75;0.50;;;13.40;70.20;;;;;;4950156;28;20447;-79
2024/03/13 07:01:29;;;;;;;1.27;0.50;;;13.40;70.40;;;;;;4967200;28;20041;-79
2024/03/13 07:04:13;;;;;;;2.95;1.10;;;13.50;70.70;;;;;;4975115;28;20063;-80
2024/03/13 07:06:58;;;;;;;3.42;0.50;;;13.60;71.00;;;;;;4970779;28;20118;-81
2024/03/13 07:09:43;;;;;;;2.60;0.88;;;13.60;71.00;;;;;;4972330;28;20080;-79
2024/03/13 07:12:27;;;;;;;1.55;0.60;;;13.60;71.00;;;;;;4974704;28;20275;-80
2024/03/13 07:15:12;;;;;;;1.50;0.40;;;13.70;71.20;;;;;;4977271;28;20499;-78
2024/03/13 07:17:56;;;;;;;2.13;0.68;;;13.70;71.30;;;;;;4970454;28;20065;-78
2024/03/13 07:20:41;;;;;;;3.45;0.80;;;13.70;71.30;;;;;;4982053;28;20603;-80
2024/03/13 07:23:26;;;;;;;3.90;0.90;;;13.70;71.30;;;;;;4986864;28;20592;-80
2024/03/13 07:26:11;;;;;;;2.35;1.15;;;13.70;71.40;;;;;;4977622;28;20600;-79
2024/03/13 07:28:55;;;;;;;2.03;0.80;;;13.70;71.40;;;;;;4953444;28;20050;-78
2024/03/13 07:31:41;;;;;;;2.63;1.40;;;13.80;71.60;;;;;;4969593;28;20498;-78
2024/03/13 07:34:25;;;;;;;4.60;1.50;;;13.80;71.70;;;;;;4972824;28;20053;-79
2024/03/13 07:37:10;;;;;;;3.72;1.13;;;13.80;71.70;;;;;;4964600;28;20062;-79
2024/03/13 07:39:58;;;;;;;3.08;1.38;;;13.90;72.00;;;;;;4976754;28;20054;-79
2024/03/13 07:42:42;;;;;;;3.47;1.60;;;13.90;72.10;;;;;;4968481;28;20081;-78
2024/03/13 07:45:28;;;;;;;2.78;1.15;;;13.90;72.10;;;;;;4958578;28;20445;-78
2024/03/13 07:48:12;;;;;;;1.92;0.73;;;14.00;72.20;;;;;;4968331;28;20068;-78
2024/03/13 07:50:57;;;;;;;3.33;1.30;;;14.00;72.20;;;;;;4973456;28;20042;-78
2024/03/13 07:53:41;;;;;;;1.60;0.73;;;14.10;72.30;;;;;;4968861;28;20576;-79
2024/03/13 07:56:26;;;;;;;2.78;1.13;;;14.10;72.20;;;;;;4964672;28;20041;-79
2024/03/13 07:59:10;;;;;;;1.85;0.85;;;14.10;72.00;;;;;;4969814;28;20859;-79
2024/03/13 08:01:54;;;;;;;3.85;1.20;;;14.20;72.10;;;;;;4970369;28;20467;-77
2024/03/13 08:04:39;;;;;;;2.47;0.95;;;14.30;72.10;;;;;;4973067;28;20053;-77
2024/03/13 08:07:26;;;;;;;1.83;0.70;;;14.30;71.90;;;;;;4971683;28;20042;-77
2024/03/13 08:10:15;;;;;;;1.67;0.70;;;14.40;71.90;;;;;;4965924;28;20089;-77
2024/03/13 08:13:00;;;;;;;3.10;0.70;;;14.50;71.90;;;;;;4969980;28;20092;-78
2024/03/13 08:15:45;;;;;;;2.50;0.63;;;14.50;71.70;;;;;;4976997;28;20160;-77
2024/03/13 08:18:29;;;;;;;2.75;0.70;;;14.60;71.80;;;;;;4972997;28;20097;-77
2024/03/13 08:21:14;;;;;;;2.38;0.70;;;14.60;71.60;;;;;;4970413;28;20068;-79
2024/03/13 08:23:58;;;;;;;1.42;0.52;;;14.70;71.60;;;;;;4973705;28;20060;-78
2024/03/13 08:26:43;;;;;;;1.00;0.60;;;14.70;71.40;;;;;;4971659;28;20501;-77
2024/03/13 08:29:29;;;;;;;0.82;0.65;;;14.70;71.30;;;;;;4975461;28;20074;-78
2024/03/13 08:32:14;;;;;;;0.90;0.52;;;14.70;71.20;;;;;;4966428;28;20033;-78
2024/03/13 08:34:59;;;;;;;2.00;0.65;;;14.80;71.30;;;;;;4971001;28;20818;-77
2024/03/13 08:37:43;;;;;;;1.20;0.70;;;14.80;71.10;;;;;;4972581;28;20053;-77
2024/03/13 08:40:28;;;;;;;1.33;0.45;;;14.80;71.10;;;;;;4972100;28;20118;-77
2024/03/13 08:43:12;;;;;;;1.27;0.75;;;14.90;71.10;;;;;;4969802;28;20073;-77
2024/03/13 08:45:57;;;;;;;2.42;0.65;;;14.90;71.00;;;;;;4973319;28;20551;-78
2024/03/13 08:48:41;;;;;;;1.02;0.60;;;15.00;71.00;;;;;;4972350;28;20046;-78
2024/03/13 08:51:26;;;;;;;2.50;0.88;;;15.10;71.10;;;;;;4972647;28;20041;-78
2024/03/13 08:54:11;;;;;;;0.57;0.40;;;15.20;71.00;;;;;;4973986;28;20045;-77
2024/03/13 08:56:55;;;;;;;0.98;0.43;;;15.30;71.00;;;;;;4966515;28;20049;-77
2024/03/13 08:59:40;;;;;;;2.85;0.40;;;15.40;70.90;;;;;;4973906;28;20398;-77
2024/03/13 09:02:25;;;;;;;2.63;0.60;;;15.50;70.90;;;;;;4970652;28;20041;-77
2024/03/13 09:05:09;;;;;;;0.88;0.63;;;15.60;70.80;;;;;;4973256;28;20045;-78
2024/03/13 09:07:54;;;;;;;0.90;0.50;;;15.70;70.70;;;;;;4972769;28;20833;-77
2024/03/13 09:10:38;;;;;;;1.42;0.65;;;15.90;70.70;;;;;;4973864;28;20440;-77
2024/03/13 09:13:26;;;;;;;1.33;0.43;;;16.00;70.50;;;;;;4968512;28;20093;-77
2024/03/13 09:16:12;;;;;;;3.28;0.75;;;16.20;70.50;;;;;;4974984;28;20049;-77
2024/03/13 09:18:57;;;;;;;1.08;0.43;;;16.30;70.90;;;;;;4972290;28;20045;-77
2024/03/13 09:21:46;;;;;;;1.95;0.40;;;16.40;70.20;;;;;;4963775;28;20213;-77
2024/03/13 09:24:30;;;;;;;2.50;0.63;;;16.50;70.10;;;;;;4968643;28;20249;-77
2024/03/13 09:27:14;;;;;;;1.48;0.40;;;16.60;70.10;;;;;;4993692;28;20046;-78
2024/03/13 09:30:02;;;;;;;0.45;0.30;;;16.60;69.80;;;;;;4972028;28;20405;-78
2024/03/13 09:32:46;;;;;;;2.28;1.25;;;16.70;69.80;;;;;;4968154;28;20402;-77
2024/03/13 09:35:30;;;;;;;2.58;1.05;;;16.60;69.50;;;;;;4965332;28;20048;-77
2024/03/13 09:38:17;;;;;;;1.38;0.40;;;16.70;69.60;;;;;;4973003;28;20057;-77
2024/03/13 09:41:05;;;;;;;1.30;1.20;;;16.70;69.50;;;;;;4974038;28;20084;-78
2024/03/13 09:43:50;;;;;;;3.13;0.63;;;16.70;69.30;;;;;;4967376;28;20160;-78
2024/03/13 09:46:37;;;;;;;1.95;0.50;;;16.80;69.30;;;;;;4968434;28;20061;-78
2024/03/13 09:49:25;;;;;;;1.88;0.40;;;16.90;69.30;;;;;;4978199;28;20150;-77
2024/03/13 09:52:15;;;;;;;1.48;0.50;;;16.90;69.10;;;;;;4982831;28;20540;-77
2024/03/13 09:55:01;;;;;;;1.30;0.80;;;17.00;69.00;;;;;;4974489;28;20513;-77
2024/03/13 09:57:48;;;;;;;1.55;0.43;;;17.10;69.00;;;;;;4988218;28;20213;-77
2024/03/13 10:00:33;;;;;;;1.33;0.50;;;17.10;68.80;;;;;;4978085;28;20054;-77
2024/03/13 10:03:25;;;;;;;1.30;0.40;;;17.10;68.60;;;;;;4974965;28;20110;-77
2024/03/13 10:06:13;;;;;;;1.00;0.60;;;17.20;68.50;;;;;;4975796;28;20096;-77
2024/03/13 10:09:15;;;;;;;1.58;0.57;;;17.30;68.50;;;;;;4968058;28;20205;-77
2024/03/13 10:12:02;;;;;;;1.85;0.70;;;17.30;68.30;;;;;;4973259;28;20089;-77
2024/03/13 10:14:52;;;;;;;1.02;0.50;;;17.40;68.30;;;;;;4977644;28;20048;-78
2024/03/13 10:17:40;;;;;;;2.42;0.73;;;17.50;68.30;;;;;;4976820;28;20125;-78
2024/03/13 10:20:29;;;;;;;3.13;1.35;;;17.60;68.20;;;;;;4984478;28;20050;-77
2024/03/13 10:23:15;;;;;;;3.75;0.85;;;17.60;67.90;;;;;;4973014;28;20268;-78
2024/03/13 10:26:00;;;;;;;1.88;0.60;;;17.70;67.80;;;;;;4976031;28;20065;-79
2024/03/13 10:28:47;;;;;;;2.28;0.52;;;17.80;67.70;;;;;;4977853;28;20065;-79
2024/03/13 10:31:32;;;;;;;1.27;0.50;;;17.90;67.60;;;;;;4973298;28;20093;-79
2024/03/13 10:34:19;;;;;;;1.38;0.55;;;17.90;67.40;;;;;;4970090;28;20062;-80
2024/03/13 10:37:12;;;;;;;1.48;0.60;;;18.00;67.40;;;;;;4976740;28;20041;-77
2024/03/13 10:39:57;;;;;;;1.58;0.57;;;18.00;67.10;;;;;;4975324;28;20588;-78
2024/03/13 10:42:42;;;;;;;2.75;0.82;;;18.10;67.20;;;;;;4971315;28;20608;-79
2024/03/13 10:45:26;;;;;;;1.55;0.90;;;18.10;67.00;;;;;;4978318;28;20037;-77
2024/03/13 10:48:11;;;;;;;1.33;0.50;;;18.20;67.00;;;;;;4976993;28;20080;-77
2024/03/13 10:50:56;;;;;;;5.78;1.42;;;18.30;66.90;;;;;;4977552;28;20394;-77
2024/03/13 10:53:43;;;;;;;0.93;0.50;;;18.30;66.70;;;;;;4979999;28;20046;-77
2024/03/13 10:56:28;;;;;;;0.85;0.50;;;18.30;66.50;;;;;;4962507;28;20117;-77
2024/03/13 10:59:12;;;;;;;2.72;0.63;;;18.40;66.60;;;;;;4959924;28;20521;-77
2024/03/13 11:01:57;;;;;;;2.30;0.52;;;18.40;66.40;;;;;;4970941;28;20050;-77
2024/03/13 11:04:44;;;;;;;2.10;0.60;;;18.40;66.30;;;;;;4969956;28;20065;-78
2024/03/13 11:07:29;;;;;;;4.88;0.70;;;18.50;66.30;;;;;;4980929;28;20042;-77
2024/03/13 11:10:24;;;;;;;1.40;0.65;;;18.50;66.20;;;;;;4992844;28;20049;-77
2024/03/13 11:13:10;;;;;;;6.13;0.90;;;18.70;66.20;;;;;;4954670;28;20341;-77
2024/03/13 11:15:58;;;;;;;2.60;0.60;;;18.80;66.10;;;;;;4971812;28;20096;-77
2024/03/13 11:18:46;;;;;;;1.80;0.60;;;18.80;65.90;;;;;;4978507;28;20141;-77
2024/03/13 11:21:45;;;;;;;4.03;1.02;;;18.90;65.80;;;;;;4983750;28;20073;-77
2024/03/13 11:24:32;;;;;;;3.22;0.73;;;18.90;65.50;;;;;;4979279;28;20049;-77
2024/03/13 11:27:19;;;;;;;2.65;0.90;;;19.00;65.70;;;;;;4977825;28;20188;-77
2024/03/13 11:30:06;;;;;;;1.20;0.70;;;19.10;65.70;;;;;;4977052;28;20392;-77
2024/03/13 11:32:54;;;;;;;4.95;1.77;;;19.10;65.50;;;;;;4969410;28;20137;-77
2024/03/13 11:35:42;;;;;;;2.00;1.10;;;19.20;65.40;;;;;;4977990;28;20100;-77
2024/03/13 11:38:26;;;;;;;3.08;1.17;;;19.30;65.30;;;;;;4964129;28;20392;-77
2024/03/13 11:41:12;;;;;;;3.42;0.82;;;19.40;65.30;;;;;;4977625;28;20461;-77
2024/03/13 11:43:58;;;;;;;2.60;0.93;;;19.60;65.30;;;;;;4979253;28;20073;-77
2024/03/13 11:46:48;;;;;;;2.22;0.63;;;19.70;65.20;;;;;;4970314;28;20516;-78
2024/03/13 11:49:35;;;;;;;2.70;0.50;;;19.80;65.00;;;;;;4968980;28;20041;-78
2024/03/13 11:52:20;;;;;;;2.60;0.88;;;19.90;64.90;;;;;;4971587;28;20133;-77
2024/03/13 11:55:22;;;;;;;2.70;0.75;;;20.00;64.80;;;;;;4961470;28;20041;-77
2024/03/13 11:58:21;;;;;;;2.53;0.70;;;20.20;64.70;;;;;;4955140;28;20048;-77
2024/03/13 12:01:07;;;;;;;3.72;1.00;;;20.30;64.60;;;;;;4971317;28;20049;-78
2024/03/13 12:03:53;;;;;;;2.65;1.00;;;20.50;64.80;;;;;;4970017;28;21180;-78
2024/03/13 12:06:38;;;;;;;3.45;1.23;;;20.60;64.60;;;;;;4973944;28;20113;-77
2024/03/13 12:09:24;;;;;;;2.17;1.42;;;20.80;64.60;;;;;;4984763;28;20073;-78
2024/03/13 12:12:13;;;;;;;3.13;0.90;;;21.00;64.60;;;;;;4974566;28;20053;-77
2024/03/13 12:14:58;;;;;;;2.05;0.88;;;21.20;64.60;;;;;;4972640;28;20436;-77
2024/03/13 12:17:43;;;;;;;4.45;1.20;;;21.30;64.40;;;;;;4971302;28;20513;-77
2024/03/13 12:20:34;;;;;;;5.43;1.40;;;21.40;64.30;;;;;;4974697;28;20053;-78
2024/03/13 12:23:19;;;;;;;3.95;1.20;;;21.50;64.20;;;;;;4973932;28;20057;-77
2024/03/13 12:26:04;;;;;;;2.40;0.90;;;21.60;64.10;;;;;;4965390;28;20045;-77
2024/03/13 12:28:54;;;;;;;4.35;1.05;;;21.70;64.00;;;;;;4963789;28;20073;-77
2024/03/13 12:31:42;;;;;;;4.60;1.02;;;21.70;63.70;;;;;;4973556;28;20441;-78
2024/03/13 12:34:28;;;;;;;4.63;0.95;;;21.80;63.70;;;;;;4973564;28;20053;-77
2024/03/13 12:37:18;;;;;;;3.13;1.48;;;21.90;63.70;;;;;;4958170;28;20069;-77
2024/03/13 12:40:08;;;;;;;5.38;1.15;;;22.00;63.70;;;;;;4972665;28;20081;-78
2024/03/13 12:42:53;;;;;;;4.63;1.35;;;22.00;63.50;;;;;;4968212;28;20053;-77
2024/03/13 12:45:38;;;;;;;6.32;1.90;;;22.10;63.40;;;;;;4990833;28;20138;-78
2024/03/13 12:48:22;;;;;;;3.55;1.17;;;22.20;63.30;;;;;;4960430;28;20054;-78
2024/03/13 12:51:08;;;;;;;3.55;1.17;;;22.20;63.10;;;;;;4966175;28;20147;-78
2024/03/13 12:53:52;;;;;;;3.83;1.00;;;22.10;62.80;;;;;;4972381;28;20041;-78
2024/03/13 12:56:42;;;;;;;2.58;0.82;;;22.10;62.70;;;;;;4968560;28;20038;-77
2024/03/13 12:59:27;;;;;;;5.28;1.17;;;22.10;62.50;;;;;;4965107;28;20100;-77
2024/03/13 13:02:13;;;;;;;2.67;1.38;;;22.00;62.40;;;;;;4976958;28;20482;-77
2024/03/13 13:04:59;;;;;;;2.88;1.10;;;22.00;62.30;;;;;;4975855;28;20053;-77
2024/03/13 13:07:56;;;;;;;3.00;0.95;;;21.90;62.20;;;;;;4988731;28;20919;-77
2024/03/13 13:10:41;;;;;;;5.13;1.48;;;21.80;61.90;;;;;;4978259;28;20507;-77
2024/03/13 13:13:26;;;;;;;4.40;0.95;;;21.70;61.90;;;;;;4974367;28;20045;-78
2024/03/13 13:16:11;;;;;;;1.50;0.90;;;21.70;61.90;;;;;;4981505;28;20045;-77
2024/03/13 13:18:57;;;;;;;4.10;1.00;;;21.60;61.70;;;;;;4973792;28;20041;-77
2024/03/13 13:21:42;;;;;;;3.40;0.80;;;21.60;61.70;;;;;;4977532;28;20046;-77
2024/03/13 13:24:26;;;;;;;3.88;1.00;;;21.50;61.50;;;;;;4969880;28;20492;-77
2024/03/13 13:27:13;;;;;;;2.67;1.40;;;21.40;61.40;;;;;;4990846;28;20181;-77
2024/03/13 13:29:57;;;;;;;4.28;1.10;;;21.30;61.30;;;;;;4972068;28;20283;-77
2024/03/13 13:32:43;;;;;;;2.60;0.98;;;21.30;61.30;;;;;;4972068;28;20138;-77
2024/03/13 13:35:28;;;;;;;1.85;1.00;;;21.20;61.20;;;;;;4972827;28;20140;-78
2024/03/13 13:38:14;;;;;;;2.65;1.00;;;21.20;61.20;;;;;;4974564;28;20049;-77
2024/03/13 13:40:59;;;;;;;3.35;0.80;;;21.10;61.10;;;;;;4992231;28;20560;-77
2024/03/13 13:43:43;;;;;;;3.30;1.05;;;21.10;61.70;;;;;;4968995;28;20061;-78
2024/03/13 13:46:34;;;;;;;2.70;0.80;;;21.10;61.20;;;;;;4967868;28;20184;-79
2024/03/13 13:49:19;;;;;;;3.38;1.25;;;21.00;61.00;;;;;;4966276;28;20509;-77
2024/03/13 13:52:05;;;;;;;3.40;0.82;;;20.90;60.90;;;;;;4978456;28;20042;-77
2024/03/13 13:54:50;;;;;;;2.45;1.00;;;20.90;61.00;;;;;;4966040;28;20042;-80
2024/03/13 13:57:34;;;;;;;3.22;1.45;;;20.80;60.90;;;;;;4979710;28;20108;-79
2024/03/13 14:00:20;;;;;;;3.08;0.85;;;20.80;60.90;;;;;;4976306;28;20818;-80
2024/03/13 14:03:08;;;;;;;1.90;0.82;;;20.70;60.80;;;;;;4973844;28;20324;-79
2024/03/13 14:05:53;;;;;;;2.83;0.73;;;20.60;60.70;;;;;;4977025;28;20520;-79
2024/03/13 14:08:39;;;;;;;3.60;1.40;;;20.60;60.80;;;;;;4967729;28;20533;-79
2024/03/13 14:11:23;;;;;;;2.13;0.95;;;20.50;60.70;;;;;;4968570;28;20116;-78
2024/03/13 14:14:09;;;;;;;4.25;1.20;;;20.40;60.70;;;;;;4974175;28;20531;-77
2024/03/13 14:16:54;;;;;;;2.60;0.95;;;20.40;60.80;;;;;;4974866;28;20109;-78
2024/03/13 14:19:39;;;;;;;2.13;0.82;;;20.30;60.80;;;;;;4974079;28;20450;-77
2024/03/13 14:22:24;;;;;;;3.33;0.77;;;20.20;60.80;;;;;;4971089;28;20625;-77
2024/03/13 14:25:08;;;;;;;2.58;1.05;;;20.20;60.90;;;;;;4974433;28;20319;-78
2024/03/13 14:27:53;;;;;;;3.03;0.90;;;20.10;60.90;;;;;;4966009;28;20118;-77
2024/03/13 14:30:37;;;;;;;2.90;1.17;;;20.00;60.80;;;;;;4965233;28;20249;-78
2024/03/13 14:33:23;;;;;;;3.65;0.90;;;20.00;60.90;;;;;;4974227;28;20065;-77
2024/03/13 14:36:11;;;;;;;3.80;1.52;;;19.90;60.90;;;;;;4974994;28;20477;-77
2024/03/13 14:38:59;;;;;;;2.25;0.68;;;19.80;60.70;;;;;;4976492;28;20533;-77
2024/03/13 14:41:44;;;;;;;5.40;1.05;;;19.80;60.80;;;;;;4971184;28;20110;-77
2024/03/13 14:44:29;;;;;;;3.33;1.30;;;19.70;60.70;;;;;;4964094;28;20064;-77